Time;durP1;ratioP1;P1;durP2;ratioP2;P2;SDS_P1;SDS_P2;PMS_P1;PMS_P2;Temp;Humidity;BMP_temperature;BMP_pressure;BME280_temperature;BME280_humidity;BME280_pressure;Samples;Min_cycle;Max_cycle;Signal;HPM_P1;HPM_P2
2021/03/25 00:01:27;;;;;;;0.10;0.10;;;;;;;;;;5100164;28;20215;-74
2021/03/25 00:03:54;;;;;;;0.10;0.10;;;;;;;;;;5102549;28;20272;-74
2021/03/25 00:06:21;;;;;;;0.20;0.20;;;;;;;;;;5102605;28;20240;-74
2021/03/25 00:08:47;;;;;;;0.10;0.10;;;;;;;;;;5103286;28;20201;-74
2021/03/25 00:11:13;;;;;;;0.17;0.17;;;;;;;;;;5090428;28;20213;-74
2021/03/25 00:13:39;;;;;;;0.20;0.20;;;;;;;;;;5103617;28;20202;-74
2021/03/25 00:16:05;;;;;;;0.17;0.17;;;;;;;;;;5092076;28;20250;-75
2021/03/25 00:18:31;;;;;;;0.10;0.10;;;;;;;;;;5103578;28;20323;-74
2021/03/25 00:20:57;;;;;;;0.10;0.10;;;;;;;;;;5103779;28;20430;-74
2021/03/25 00:23:24;;;;;;;0.20;0.20;;;;;;;;;;5103582;28;20216;-74
2021/03/25 00:25:49;;;;;;;0.20;0.20;;;;;;;;;;5103262;28;20508;-74
2021/03/25 00:28:16;;;;;;;0.20;0.20;;;;;;;;;;5103255;28;20212;-74
2021/03/25 00:30:42;;;;;;;0.20;0.20;;;;;;;;;;5103525;28;20210;-74
2021/03/25 00:33:09;;;;;;;0.73;0.73;;;;;;;;;;5103535;28;20207;-74
2021/03/25 00:35:35;;;;;;;0.10;0.10;;;;;;;;;;5103526;28;20494;-74
2021/03/25 00:38:02;;;;;;;0.10;0.10;;;;;;;;;;5103163;28;20257;-74
2021/03/25 00:40:28;;;;;;;0.17;0.17;;;;;;;;;;5103574;28;20493;-74
2021/03/25 00:42:54;;;;;;;0.20;0.20;;;;;;;;;;5103083;28;20213;-72
2021/03/25 00:45:22;;;;;;;0.20;0.20;;;;;;;;;;5096069;28;20263;-73
2021/03/25 00:47:48;;;;;;;0.57;0.57;;;;;;;;;;5084701;28;20225;-74
2021/03/25 00:50:18;;;;;;;0.20;0.20;;;;;;;;;;5095398;28;20241;-73
2021/03/25 00:52:44;;;;;;;0.10;0.10;;;;;;;;;;5088343;28;20217;-74
2021/03/25 00:55:11;;;;;;;0.20;0.20;;;;;;;;;;5090509;28;20202;-73
2021/03/25 00:57:38;;;;;;;0.10;0.10;;;;;;;;;;5089376;28;20229;-74
2021/03/25 01:00:05;;;;;;;0.20;0.20;;;;;;;;;;5103062;28;20208;-75
2021/03/25 01:02:30;;;;;;;0.10;0.10;;;;;;;;;;5085018;28;20202;-73
2021/03/25 01:04:56;;;;;;;0.10;0.10;;;;;;;;;;5103081;28;20232;-74
2021/03/25 01:07:23;;;;;;;0.20;0.20;;;;;;;;;;5101845;28;20204;-75
2021/03/25 01:09:49;;;;;;;0.20;0.20;;;;;;;;;;5103263;28;20228;-75
2021/03/25 01:12:15;;;;;;;0.10;0.10;;;;;;;;;;5090415;28;20204;-74
2021/03/25 01:14:42;;;;;;;0.20;0.20;;;;;;;;;;5085298;28;20288;-74
2021/03/25 01:17:07;;;;;;;0.20;0.20;;;;;;;;;;5097990;28;20243;-74
2021/03/25 01:19:33;;;;;;;0.10;0.10;;;;;;;;;;5088977;28;20409;-74
2021/03/25 01:22:00;;;;;;;0.10;0.10;;;;;;;;;;5097953;28;20267;-74
2021/03/25 01:24:26;;;;;;;0.20;0.20;;;;;;;;;;5102156;28;20206;-74
2021/03/25 01:26:52;;;;;;;0.20;0.20;;;;;;;;;;5101960;28;20237;-74
2021/03/25 01:29:18;;;;;;;0.20;0.20;;;;;;;;;;5107021;28;20272;-73
2021/03/25 01:31:45;;;;;;;0.20;0.20;;;;;;;;;;5106743;28;20264;-74
2021/03/25 01:34:12;;;;;;;0.20;0.20;;;;;;;;;;5104767;28;20521;-74
2021/03/25 01:36:38;;;;;;;0.10;0.10;;;;;;;;;;5106643;28;20208;-74
2021/03/25 01:39:04;;;;;;;0.20;0.20;;;;;;;;;;5104103;28;20611;-74
2021/03/25 01:41:31;;;;;;;0.13;0.13;;;;;;;;;;5106759;28;20217;-74
2021/03/25 01:43:56;;;;;;;0.20;0.20;;;;;;;;;;5106585;28;20202;-74
2021/03/25 01:46:25;;;;;;;0.20;0.20;;;;;;;;;;5092520;28;20233;-74
2021/03/25 01:48:53;;;;;;;0.10;0.10;;;;;;;;;;5095114;28;20361;-74
2021/03/25 01:51:27;;;;;;;0.40;0.40;;;;;;;;;;5096176;28;20395;-74
2021/03/25 01:54:10;;;;;;;0.20;0.20;;;;;;;;;;5097153;28;20418;-74
2021/03/25 01:56:51;;;;;;;0.10;0.10;;;;;;;;;;5094505;28;22460;-74
2021/03/25 01:59:40;;;;;;;0.10;0.10;;;;;;;;;;5084965;28;20240;-74
2021/03/25 02:02:09;;;;;;;0.20;0.20;;;;;;;;;;5103156;28;20205;-75
2021/03/25 02:04:47;;;;;;;0.10;0.10;;;;;;;;;;5103144;28;20230;-74
2021/03/25 02:07:15;;;;;;;0.20;0.20;;;;;;;;;;5106342;28;20204;-74
2021/03/25 02:09:43;;;;;;;0.20;0.20;;;;;;;;;;5099385;28;20488;-74
2021/03/25 02:12:12;;;;;;;0.10;0.10;;;;;;;;;;5086952;28;20273;-74
2021/03/25 02:14:44;;;;;;;0.13;0.13;;;;;;;;;;5088219;28;20197;-74
2021/03/25 02:17:12;;;;;;;0.10;0.10;;;;;;;;;;5101129;28;20242;-74
2021/03/25 02:19:56;;;;;;;0.20;0.20;;;;;;;;;;5101166;28;20222;-74
2021/03/25 02:22:40;;;;;;;0.10;0.10;;;;;;;;;;5093829;28;20254;-73
2021/03/25 02:25:08;;;;;;;0.20;0.20;;;;;;;;;;5098090;28;20209;-74
2021/03/25 02:27:39;;;;;;;0.10;0.10;;;;;;;;;;5105319;28;20214;-74
2021/03/25 02:30:05;;;;;;;0.60;0.60;;;;;;;;;;5099014;28;20204;-74
2021/03/25 02:32:34;;;;;;;0.27;0.27;;;;;;;;;;5092707;28;20231;-74
2021/03/25 02:35:02;;;;;;;0.20;0.20;;;;;;;;;;5095216;28;20212;-73
2021/03/25 02:37:29;;;;;;;0.20;0.20;;;;;;;;;;5101377;28;20217;-74
2021/03/25 02:39:56;;;;;;;0.10;0.10;;;;;;;;;;5102019;28;20438;-74
2021/03/25 02:42:26;;;;;;;0.10;0.10;;;;;;;;;;5103153;28;20220;-75
2021/03/25 02:44:55;;;;;;;0.20;0.20;;;;;;;;;;5103421;28;20247;-74
2021/03/25 02:47:22;;;;;;;0.20;0.20;;;;;;;;;;5105470;28;20209;-74
2021/03/25 02:49:50;;;;;;;0.20;0.20;;;;;;;;;;5105246;28;20208;-74
2021/03/25 02:52:18;;;;;;;0.20;0.20;;;;;;;;;;5097798;28;20232;-74
2021/03/25 02:54:44;;;;;;;0.20;0.20;;;;;;;;;;5095805;28;20345;-73
2021/03/25 02:57:15;;;;;;;1.40;1.40;;;;;;;;;;5103941;28;20492;-74
2021/03/25 02:59:42;;;;;;;0.10;0.10;;;;;;;;;;5102932;28;20247;-73
2021/03/25 03:02:11;;;;;;;0.10;0.10;;;;;;;;;;5103757;28;20477;-73
2021/03/25 03:04:39;;;;;;;0.20;0.20;;;;;;;;;;5102898;28;20539;-74
2021/03/25 03:07:08;;;;;;;0.20;0.20;;;;;;;;;;5104943;28;20212;-73
2021/03/25 03:09:35;;;;;;;0.20;0.20;;;;;;;;;;5103193;28;20558;-73
2021/03/25 03:12:02;;;;;;;0.20;0.20;;;;;;;;;;5104841;28;20221;-73
2021/03/25 03:14:30;;;;;;;0.20;0.20;;;;;;;;;;5104430;28;20250;-73
2021/03/25 03:16:59;;;;;;;0.20;0.20;;;;;;;;;;5093341;28;20210;-74
2021/03/25 03:19:26;;;;;;;0.20;0.20;;;;;;;;;;5103685;28;20245;-75
2021/03/25 03:21:53;;;;;;;0.20;0.20;;;;;;;;;;5104619;28;20204;-75
2021/03/25 03:24:20;;;;;;;0.10;0.10;;;;;;;;;;5094320;28;20206;-74
2021/03/25 03:26:49;;;;;;;0.20;0.20;;;;;;;;;;5104483;28;20216;-75
2021/03/25 03:29:16;;;;;;;0.20;0.20;;;;;;;;;;5098967;28;20381;-74
2021/03/25 03:31:44;;;;;;;0.20;0.20;;;;;;;;;;5104486;28;20200;-74
2021/03/25 03:34:12;;;;;;;0.20;0.20;;;;;;;;;;5091659;28;20214;-74
2021/03/25 03:36:39;;;;;;;0.20;0.20;;;;;;;;;;5103387;28;20480;-74
2021/03/25 03:39:06;;;;;;;0.20;0.20;;;;;;;;;;5104130;28;20225;-73
2021/03/25 03:41:34;;;;;;;0.30;0.30;;;;;;;;;;5104174;28;20201;-73
2021/03/25 03:44:00;;;;;;;0.20;0.20;;;;;;;;;;5104367;28;20205;-74
2021/03/25 03:46:27;;;;;;;0.20;0.20;;;;;;;;;;5103745;28;20205;-74
2021/03/25 03:48:56;;;;;;;0.20;0.20;;;;;;;;;;5103865;28;20219;-73
2021/03/25 03:51:24;;;;;;;0.20;0.20;;;;;;;;;;5093293;28;20410;-74
2021/03/25 03:53:50;;;;;;;0.20;0.20;;;;;;;;;;5104274;28;20532;-73
2021/03/25 03:56:21;;;;;;;0.20;0.20;;;;;;;;;;5103933;28;20270;-73
2021/03/25 03:58:50;;;;;;;0.27;0.27;;;;;;;;;;5103208;28;20244;-74
2021/03/25 04:01:23;;;;;;;0.20;0.20;;;;;;;;;;5104006;28;20212;-74
2021/03/25 04:03:50;;;;;;;0.20;0.20;;;;;;;;;;5099557;28;20221;-74
2021/03/25 04:06:18;;;;;;;0.20;0.20;;;;;;;;;;5103560;28;20210;-74
2021/03/25 04:08:48;;;;;;;0.20;0.20;;;;;;;;;;5103473;28;20208;-74
2021/03/25 04:11:18;;;;;;;0.20;0.20;;;;;;;;;;5103901;28;20201;-74
2021/03/25 04:13:46;;;;;;;0.20;0.20;;;;;;;;;;5104279;28;20197;-74
2021/03/25 04:16:14;;;;;;;2.40;2.30;;;;;;;;;;5103704;28;20208;-74
2021/03/25 04:18:41;;;;;;;0.10;0.10;;;;;;;;;;5103800;28;20580;-74
2021/03/25 04:21:09;;;;;;;0.20;0.20;;;;;;;;;;5090782;28;20203;-74
2021/03/25 04:23:36;;;;;;;0.20;0.20;;;;;;;;;;5103792;28;20205;-74
2021/03/25 04:26:06;;;;;;;0.20;0.20;;;;;;;;;;5103354;28;20200;-73
2021/03/25 04:28:33;;;;;;;0.20;0.20;;;;;;;;;;5103701;28;20492;-74
2021/03/25 04:30:59;;;;;;;0.20;0.20;;;;;;;;;;5103250;28;20215;-74
2021/03/25 04:33:28;;;;;;;3.40;3.30;;;;;;;;;;5103438;28;20207;-73
2021/03/25 04:35:54;;;;;;;0.20;0.20;;;;;;;;;;5103504;28;20372;-74
2021/03/25 04:38:21;;;;;;;0.20;0.20;;;;;;;;;;5096776;28;20240;-74
2021/03/25 04:40:48;;;;;;;0.20;0.20;;;;;;;;;;5103694;28;20228;-72
2021/03/25 04:43:16;;;;;;;0.20;0.20;;;;;;;;;;5089386;28;20284;-74
2021/03/25 04:45:45;;;;;;;0.13;0.13;;;;;;;;;;5103395;28;20225;-74
2021/03/25 04:48:13;;;;;;;0.20;0.20;;;;;;;;;;5103178;28;20492;-74
2021/03/25 04:50:56;;;;;;;0.20;0.20;;;;;;;;;;5103219;28;20214;-73
2021/03/25 04:53:22;;;;;;;0.10;0.10;;;;;;;;;;5103268;28;20201;-74
2021/03/25 04:55:49;;;;;;;0.20;0.20;;;;;;;;;;5103415;28;20203;-74
2021/03/25 04:58:19;;;;;;;0.20;0.20;;;;;;;;;;5091814;28;20230;-74
2021/03/25 05:00:45;;;;;;;0.50;0.50;;;;;;;;;;5106336;28;20238;-74
2021/03/25 05:03:15;;;;;;;0.20;0.20;;;;;;;;;;5107306;28;20269;-73
2021/03/25 05:05:42;;;;;;;1.90;1.80;;;;;;;;;;5106663;28;20261;-74
2021/03/25 05:08:08;;;;;;;0.10;0.10;;;;;;;;;;5107230;28;20206;-74
2021/03/25 05:10:38;;;;;;;0.20;0.20;;;;;;;;;;5104322;28;20202;-75
2021/03/25 05:13:04;;;;;;;0.20;0.20;;;;;;;;;;5107411;28;20202;-74
2021/03/25 05:15:31;;;;;;;0.20;0.20;;;;;;;;;;5107379;28;20240;-73
2021/03/25 05:18:02;;;;;;;0.67;0.67;;;;;;;;;;5107312;28;20419;-75
2021/03/25 05:20:33;;;;;;;0.20;0.20;;;;;;;;;;5107050;28;20199;-74
2021/03/25 05:23:05;;;;;;;0.10;0.10;;;;;;;;;;5099733;28;20210;-76
2021/03/25 05:25:34;;;;;;;1.70;1.70;;;;;;;;;;5104238;28;20204;-74
2021/03/25 05:28:02;;;;;;;0.20;0.20;;;;;;;;;;5107056;28;20197;-75
2021/03/25 05:30:30;;;;;;;0.20;0.20;;;;;;;;;;5098119;28;20202;-75
2021/03/25 05:32:58;;;;;;;0.10;0.10;;;;;;;;;;5098295;28;20206;-75
2021/03/25 05:35:27;;;;;;;0.20;0.20;;;;;;;;;;5107049;28;20533;-75
2021/03/25 05:37:53;;;;;;;0.20;0.20;;;;;;;;;;5106583;28;20227;-74
2021/03/25 05:40:23;;;;;;;0.10;0.10;;;;;;;;;;5106946;28;20209;-75
2021/03/25 05:42:54;;;;;;;0.20;0.20;;;;;;;;;;5104265;28;20508;-75
2021/03/25 05:45:38;;;;;;;0.20;0.20;;;;;;;;;;5106433;28;20202;-73
2021/03/25 05:48:14;;;;;;;0.20;0.20;;;;;;;;;;5106190;28;20390;-74
2021/03/25 05:50:44;;;;;;;0.20;0.20;;;;;;;;;;5105961;28;20269;-75
2021/03/25 05:53:20;;;;;;;0.20;0.20;;;;;;;;;;5106591;28;20204;-74
2021/03/25 05:55:54;;;;;;;0.20;0.20;;;;;;;;;;5106493;28;20205;-74
2021/03/25 05:58:31;;;;;;;0.20;0.20;;;;;;;;;;5104797;28;20522;-74
2021/03/25 06:01:09;;;;;;;0.30;0.30;;;;;;;;;;5104209;28;20199;-74
2021/03/25 06:03:36;;;;;;;0.20;0.20;;;;;;;;;;5105843;28;20243;-74
2021/03/25 06:06:02;;;;;;;0.20;0.20;;;;;;;;;;5106105;28;20203;-74
2021/03/25 06:08:32;;;;;;;0.20;0.20;;;;;;;;;;5105849;28;20223;-74
2021/03/25 06:11:04;;;;;;;0.20;0.20;;;;;;;;;;5102781;28;20203;-73
2021/03/25 06:13:47;;;;;;;0.20;0.20;;;;;;;;;;5106668;28;20483;-74
2021/03/25 06:16:24;;;;;;;0.10;0.10;;;;;;;;;;5093752;28;20209;-73
2021/03/25 06:18:59;;;;;;;0.20;0.20;;;;;;;;;;5105915;28;20223;-74
2021/03/25 06:21:27;;;;;;;0.20;0.20;;;;;;;;;;5105868;28;20213;-75
2021/03/25 06:24:07;;;;;;;0.20;0.20;;;;;;;;;;5105730;28;20269;-74
2021/03/25 06:26:39;;;;;;;0.20;0.20;;;;;;;;;;5106126;28;20207;-75
2021/03/25 06:29:07;;;;;;;0.20;0.20;;;;;;;;;;5101699;28;20271;-75
2021/03/25 06:31:42;;;;;;;0.20;0.20;;;;;;;;;;5105771;28;20208;-75
2021/03/25 06:34:12;;;;;;;0.20;0.20;;;;;;;;;;5104026;28;20224;-76
2021/03/25 06:36:43;;;;;;;0.20;0.20;;;;;;;;;;5101222;28;20205;-75
2021/03/25 06:39:16;;;;;;;0.10;0.10;;;;;;;;;;5105295;28;20243;-74
2021/03/25 06:41:45;;;;;;;0.20;0.20;;;;;;;;;;5105678;28;20228;-75
2021/03/25 06:44:14;;;;;;;0.20;0.20;;;;;;;;;;5105217;28;20243;-73
2021/03/25 06:46:41;;;;;;;0.20;0.20;;;;;;;;;;5100832;28;20233;-74
2021/03/25 06:49:11;;;;;;;0.20;0.20;;;;;;;;;;5105115;28;20235;-75
2021/03/25 06:51:37;;;;;;;0.20;0.20;;;;;;;;;;5105539;28;20399;-75
2021/03/25 06:54:08;;;;;;;0.13;0.13;;;;;;;;;;5105197;28;20277;-74
2021/03/25 06:56:36;;;;;;;0.20;0.20;;;;;;;;;;5105351;28;20197;-74
2021/03/25 06:59:03;;;;;;;0.20;0.20;;;;;;;;;;5105028;28;20296;-75
2021/03/25 07:01:31;;;;;;;0.20;0.20;;;;;;;;;;5093738;28;20487;-74
2021/03/25 07:03:58;;;;;;;0.10;0.10;;;;;;;;;;5099131;28;20226;-75
2021/03/25 07:06:25;;;;;;;0.10;0.10;;;;;;;;;;5094190;28;20392;-74
2021/03/25 07:08:53;;;;;;;0.20;0.20;;;;;;;;;;5094110;28;20230;-74
2021/03/25 07:11:19;;;;;;;0.10;0.10;;;;;;;;;;5100561;28;20233;-74
2021/03/25 07:13:46;;;;;;;0.10;0.10;;;;;;;;;;5103182;28;20207;-74
2021/03/25 07:16:14;;;;;;;0.10;0.10;;;;;;;;;;5093778;28;20207;-74
2021/03/25 07:18:46;;;;;;;0.10;0.10;;;;;;;;;;5096674;28;20286;-73
2021/03/25 07:21:29;;;;;;;0.10;0.10;;;;;;;;;;5097760;28;20347;-76
2021/03/25 07:23:55;;;;;;;0.10;0.10;;;;;;;;;;5099284;28;20207;-73
2021/03/25 07:26:23;;;;;;;0.10;0.10;;;;;;;;;;5089665;28;20421;-78
2021/03/25 07:29:13;;;;;;;0.10;0.10;;;;;;;;;;5091762;28;20383;-73
2021/03/25 07:31:42;;;;;;;0.10;0.10;;;;;;;;;;5073556;28;20206;-74
2021/03/25 07:34:08;;;;;;;0.10;0.10;;;;;;;;;;5092990;28;20207;-76
2021/03/25 07:36:38;;;;;;;0.10;0.10;;;;;;;;;;5100909;28;20199;-74
2021/03/25 07:39:05;;;;;;;0.10;0.10;;;;;;;;;;5095453;28;20223;-76
2021/03/25 07:41:32;;;;;;;0.10;0.10;;;;;;;;;;5095472;28;20284;-74
2021/03/25 07:43:59;;;;;;;0.10;0.10;;;;;;;;;;5103825;28;20271;-75
2021/03/25 07:46:28;;;;;;;0.00;0.00;;;;;;;;;;5098494;28;20208;-75
2021/03/25 07:49:03;;;;;;;0.00;0.00;;;;;;;;;;5095490;28;20300;-77
2021/03/25 07:51:40;;;;;;;0.10;0.10;;;;;;;;;;5094166;28;20196;-74
2021/03/25 07:54:14;;;;;;;0.10;0.10;;;;;;;;;;5094124;28;20202;-76
2021/03/25 07:56:54;;;;;;;0.10;0.10;;;;;;;;;;5096959;28;20250;-75
2021/03/25 07:59:31;;;;;;;0.10;0.10;;;;;;;;;;5099423;28;20222;-76
2021/03/25 08:01:57;;;;;;;0.10;0.10;;;;;;;;;;5097946;28;20234;-75
2021/03/25 08:04:28;;;;;;;0.10;0.10;;;;;;;;;;5103736;28;20459;-76
2021/03/25 08:07:02;;;;;;;0.10;0.10;;;;;;;;;;5094181;28;20207;-74
2021/03/25 08:09:29;;;;;;;0.00;0.00;;;;;;;;;;5102778;28;20273;-75
2021/03/25 08:11:55;;;;;;;0.10;0.10;;;;;;;;;;5101730;28;20373;-74
2021/03/25 08:14:22;;;;;;;0.10;0.10;;;;;;;;;;5098265;28;20200;-75
2021/03/25 08:16:51;;;;;;;0.00;0.00;;;;;;;;;;5101248;28;20207;-75
2021/03/25 08:19:23;;;;;;;0.10;0.10;;;;;;;;;;5094353;28;20273;-75
2021/03/25 08:22:01;;;;;;;0.10;0.10;;;;;;;;;;5090277;28;20203;-75
2021/03/25 08:24:40;;;;;;;0.05;0.05;;;;;;;;;;5090735;28;20271;-76
2021/03/25 08:27:13;;;;;;;0.08;0.08;;;;;;;;;;5099880;28;20494;-74
2021/03/25 08:29:41;;;;;;;0.10;0.10;;;;;;;;;;5088218;28;20204;-74
2021/03/25 08:32:15;;;;;;;0.00;0.00;;;;;;;;;;5095687;28;20215;-75
2021/03/25 08:34:51;;;;;;;0.08;0.08;;;;;;;;;;5103682;28;20202;-74
2021/03/25 08:37:26;;;;;;;0.10;0.10;;;;;;;;;;5101207;28;20279;-74
2021/03/25 08:39:53;;;;;;;0.00;0.00;;;;;;;;;;5103620;28;20447;-73
2021/03/25 08:42:25;;;;;;;0.10;0.10;;;;;;;;;;5099637;28;20211;-65
2021/03/25 08:44:56;;;;;;;0.10;0.10;;;;;;;;;;5103455;28;20547;-74
2021/03/25 08:47:26;;;;;;;0.85;0.85;;;;;;;;;;5101329;28;20208;-74
2021/03/25 08:49:56;;;;;;;0.10;0.10;;;;;;;;;;5101986;28;20262;-73
2021/03/25 08:52:25;;;;;;;0.00;0.00;;;;;;;;;;5103461;28;20371;-76
2021/03/25 08:54:57;;;;;;;0.00;0.00;;;;;;;;;;5089117;28;20207;-75
2021/03/25 08:57:24;;;;;;;0.10;0.10;;;;;;;;;;5090617;28;20267;-77
2021/03/25 08:59:53;;;;;;;0.08;0.08;;;;;;;;;;5096477;28;20222;-75
2021/03/25 09:02:23;;;;;;;0.20;0.20;;;;;;;;;;5093047;28;20273;-76
2021/03/25 09:04:51;;;;;;;0.03;0.03;;;;;;;;;;5098527;28;20223;-75
2021/03/25 09:07:19;;;;;;;0.03;0.03;;;;;;;;;;5090119;28;20507;-74
2021/03/25 09:09:47;;;;;;;0.00;0.00;;;;;;;;;;5103134;28;20198;-75
2021/03/25 09:12:15;;;;;;;0.00;0.00;;;;;;;;;;5093250;28;20459;-75
2021/03/25 09:14:41;;;;;;;0.00;0.00;;;;;;;;;;5096087;28;20246;-76
2021/03/25 09:17:10;;;;;;;0.00;0.00;;;;;;;;;;5098266;28;20203;-75
2021/03/25 09:19:39;;;;;;;0.10;0.10;;;;;;;;;;5095741;28;20220;-74
2021/03/25 09:22:05;;;;;;;0.00;0.00;;;;;;;;;;5097027;28;20210;-74
2021/03/25 09:24:31;;;;;;;0.00;0.00;;;;;;;;;;5102058;28;20207;-75
2021/03/25 09:26:59;;;;;;;0.00;0.00;;;;;;;;;;5102352;28;20195;-75
2021/03/25 09:29:27;;;;;;;0.08;0.08;;;;;;;;;;5096565;28;20243;-75
2021/03/25 09:32:11;;;;;;;0.00;0.00;;;;;;;;;;5098238;28;20207;-75
2021/03/25 09:34:38;;;;;;;0.00;0.00;;;;;;;;;;5084809;28;20203;-76
2021/03/25 09:37:13;;;;;;;0.00;0.00;;;;;;;;;;5097957;28;20218;-74
2021/03/25 09:39:39;;;;;;;0.00;0.00;;;;;;;;;;5096531;28;20211;-74
2021/03/25 09:42:23;;;;;;;0.00;0.00;;;;;;;;;;5099585;28;20206;-74
2021/03/25 09:44:49;;;;;;;0.00;0.00;;;;;;;;;;5100694;28;20277;-76
2021/03/25 09:47:20;;;;;;;0.10;0.10;;;;;;;;;;5106687;28;20198;-76
2021/03/25 09:49:48;;;;;;;0.00;0.00;;;;;;;;;;5104744;28;20270;-76
2021/03/25 09:52:23;;;;;;;0.10;0.10;;;;;;;;;;5106599;28;20207;-75
2021/03/25 09:54:59;;;;;;;0.00;0.00;;;;;;;;;;5099143;28;20223;-75
2021/03/25 09:57:27;;;;;;;0.00;0.00;;;;;;;;;;5106718;28;20222;-74
2021/03/25 09:59:54;;;;;;;0.10;0.10;;;;;;;;;;5105898;28;20223;-76
2021/03/25 10:02:38;;;;;;;0.00;0.00;;;;;;;;;;5106637;28;20203;-75
2021/03/25 10:05:22;;;;;;;0.00;0.00;;;;;;;;;;5101380;28;20227;-74
2021/03/25 10:07:49;;;;;;;0.00;0.00;;;;;;;;;;5082938;28;20234;-74
2021/03/25 10:10:29;;;;;;;0.00;0.00;;;;;;;;;;5100193;28;20404;-76
2021/03/25 10:13:25;;;;;;;0.03;0.03;;;;;;;;;;5098353;28;20444;-75
2021/03/25 10:15:56;;;;;;;0.20;0.20;;;;;;;;;;5095794;28;20195;-76
2021/03/25 10:18:40;;;;;;;0.00;0.00;;;;;;;;;;5105747;28;20214;-74
2021/03/25 10:21:08;;;;;;;0.00;0.00;;;;;;;;;;5091422;28;20221;-75
2021/03/25 10:23:36;;;;;;;0.00;0.00;;;;;;;;;;5098251;28;20265;-74
2021/03/25 10:26:16;;;;;;;0.10;0.10;;;;;;;;;;5105676;28;20281;-74
2021/03/25 10:28:43;;;;;;;0.00;0.00;;;;;;;;;;5102836;28;20222;-72
2021/03/25 10:31:14;;;;;;;0.00;0.00;;;;;;;;;;5102395;28;20213;-73
2021/03/25 10:33:40;;;;;;;0.00;0.00;;;;;;;;;;5103119;28;20214;-73
2021/03/25 10:36:08;;;;;;;0.00;0.00;;;;;;;;;;5105475;28;20226;-73
2021/03/25 10:38:39;;;;;;;0.05;0.05;;;;;;;;;;5105497;28;20237;-73
2021/03/25 10:41:05;;;;;;;0.00;0.00;;;;;;;;;;5105148;28;20396;-73
2021/03/25 10:43:34;;;;;;;0.40;0.40;;;;;;;;;;5103798;28;20206;-75
2021/03/25 10:46:01;;;;;;;1.35;1.35;;;;;;;;;;5100982;28;20202;-75
2021/03/25 10:48:30;;;;;;;0.00;0.00;;;;;;;;;;5098064;28;20483;-75
2021/03/25 10:50:58;;;;;;;0.00;0.00;;;;;;;;;;5101573;28;20209;-74
2021/03/25 10:53:26;;;;;;;0.10;0.10;;;;;;;;;;5092797;28;20207;-74
2021/03/25 10:55:55;;;;;;;0.35;0.35;;;;;;;;;;5105215;28;20309;-74
2021/03/25 10:58:25;;;;;;;0.00;0.00;;;;;;;;;;5103194;28;20490;-74
2021/03/25 11:01:00;;;;;;;0.00;0.00;;;;;;;;;;5102720;28;20206;-74
2021/03/25 11:03:28;;;;;;;0.00;0.00;;;;;;;;;;5100292;28;20274;-73
2021/03/25 11:05:56;;;;;;;0.00;0.00;;;;;;;;;;5104078;28;20527;-75
2021/03/25 11:08:31;;;;;;;0.57;0.57;;;;;;;;;;5103811;28;20206;-70
2021/03/25 11:10:58;;;;;;;0.00;0.00;;;;;;;;;;5091354;28;20429;-67
2021/03/25 11:13:25;;;;;;;0.00;0.00;;;;;;;;;;5101191;28;20210;-68
2021/03/25 11:15:55;;;;;;;0.00;0.00;;;;;;;;;;5100165;28;20199;-67
2021/03/25 11:18:23;;;;;;;0.00;0.00;;;;;;;;;;5104606;28;20423;-69
2021/03/25 11:20:50;;;;;;;0.08;0.08;;;;;;;;;;5104424;28;20269;-68
2021/03/25 11:23:19;;;;;;;0.10;0.10;;;;;;;;;;5098549;28;20222;-68
2021/03/25 11:25:45;;;;;;;0.00;0.00;;;;;;;;;;5094251;28;20512;-68
2021/03/25 11:28:13;;;;;;;0.30;0.30;;;;;;;;;;5090521;28;20456;-68
2021/03/25 11:30:41;;;;;;;0.08;0.08;;;;;;;;;;5101771;28;20256;-69
2021/03/25 11:33:37;;;;;;;0.00;0.00;;;;;;;;;;5094689;28;20226;-69
2021/03/25 11:36:05;;;;;;;0.20;0.20;;;;;;;;;;5022346;28;20225;-69
2021/03/25 11:38:34;;;;;;;0.90;0.55;;;;;;;;;;5083044;28;20555;-69
2021/03/25 11:41:01;;;;;;;0.10;0.10;;;;;;;;;;5099999;28;20386;-68
2021/03/25 11:43:39;;;;;;;0.05;0.05;;;;;;;;;;5096551;28;20214;-70
2021/03/25 11:46:05;;;;;;;0.15;0.15;;;;;;;;;;5096079;28;20194;-69
2021/03/25 11:48:32;;;;;;;0.00;0.00;;;;;;;;;;5095125;28;20518;-69
2021/03/25 11:51:19;;;;;;;0.30;0.30;;;;;;;;;;5104275;28;20420;-69
2021/03/25 11:53:46;;;;;;;0.00;0.00;;;;;;;;;;5086036;28;20206;-70
2021/03/25 11:56:21;;;;;;;0.00;0.00;;;;;;;;;;5099160;28;20261;-70
2021/03/25 11:58:49;;;;;;;0.00;0.00;;;;;;;;;;5102167;28;20356;-71
2021/03/25 12:01:20;;;;;;;0.00;0.00;;;;;;;;;;5095524;28;20203;-68
2021/03/25 12:03:48;;;;;;;0.10;0.10;;;;;;;;;;5087089;28;20237;-67
2021/03/25 12:06:21;;;;;;;0.00;0.00;;;;;;;;;;5098155;28;20514;-69
2021/03/25 12:08:48;;;;;;;0.00;0.00;;;;;;;;;;5094849;28;20195;-68
2021/03/25 12:11:14;;;;;;;0.00;0.00;;;;;;;;;;5086810;28;20479;-68
2021/03/25 12:13:42;;;;;;;0.00;0.00;;;;;;;;;;5098045;28;20198;-68
2021/03/25 12:16:09;;;;;;;0.00;0.00;;;;;;;;;;5097524;28;20270;-69
2021/03/25 12:18:37;;;;;;;0.05;0.05;;;;;;;;;;5088049;28;20407;-68
2021/03/25 12:21:06;;;;;;;0.00;0.00;;;;;;;;;;5086551;28;20284;-68
2021/03/25 12:23:33;;;;;;;0.00;0.00;;;;;;;;;;5103018;28;20233;-69
2021/03/25 12:26:00;;;;;;;0.00;0.00;;;;;;;;;;5099227;28;20513;-67
2021/03/25 12:28:27;;;;;;;0.10;0.10;;;;;;;;;;5103815;28;20206;-69
2021/03/25 12:30:53;;;;;;;10.88;1.27;;;;;;;;;;5100834;28;20226;-69
2021/03/25 12:33:21;;;;;;;0.95;0.95;;;;;;;;;;5092667;28;20234;-72
2021/03/25 12:35:48;;;;;;;0.00;0.00;;;;;;;;;;5097312;28;20217;-71
2021/03/25 12:38:14;;;;;;;0.00;0.00;;;;;;;;;;5103280;28;20316;-70
2021/03/25 12:40:40;;;;;;;0.10;0.10;;;;;;;;;;5096378;28;20227;-72
2021/03/25 12:43:06;;;;;;;0.00;0.00;;;;;;;;;;5094770;28;20198;-72
2021/03/25 12:45:33;;;;;;;11.07;5.88;;;;;;;;;;5092234;28;20207;-71
2021/03/25 12:48:00;;;;;;;0.10;0.10;;;;;;;;;;5100182;28;20403;-71
2021/03/25 12:50:26;;;;;;;0.10;0.10;;;;;;;;;;5097003;28;20204;-72
2021/03/25 12:52:52;;;;;;;0.00;0.00;;;;;;;;;;5103811;28;20227;-73
2021/03/25 12:55:18;;;;;;;0.20;0.20;;;;;;;;;;5094558;28;20234;-73
2021/03/25 12:57:44;;;;;;;0.10;0.10;;;;;;;;;;5093322;28;20209;-70
2021/03/25 13:00:14;;;;;;;0.10;0.10;;;;;;;;;;5097558;28;20223;-69
2021/03/25 13:02:42;;;;;;;0.30;0.30;;;;;;;;;;5092000;28;20232;-67
2021/03/25 13:05:08;;;;;;;0.10;0.10;;;;;;;;;;5103333;28;20230;-69
2021/03/25 13:07:34;;;;;;;0.03;0.03;;;;;;;;;;5099335;28;20206;-68
2021/03/25 13:10:00;;;;;;;0.03;0.03;;;;;;;;;;5099351;28;20213;-69
2021/03/25 13:12:27;;;;;;;0.15;0.15;;;;;;;;;;5102047;28;20200;-70
2021/03/25 13:14:53;;;;;;;0.10;0.10;;;;;;;;;;5089920;28;20348;-69
2021/03/25 13:17:20;;;;;;;0.10;0.10;;;;;;;;;;5103404;28;20285;-69
2021/03/25 13:19:46;;;;;;;0.57;0.57;;;;;;;;;;5101747;28;20321;-69
2021/03/25 13:22:12;;;;;;;0.10;0.10;;;;;;;;;;5100668;28;20222;-68
2021/03/25 13:24:38;;;;;;;0.00;0.00;;;;;;;;;;5106329;28;20491;-69
2021/03/25 13:27:04;;;;;;;0.10;0.10;;;;;;;;;;5107203;28;20211;-68
2021/03/25 13:29:30;;;;;;;0.70;0.70;;;;;;;;;;5105727;28;20205;-70
2021/03/25 13:31:56;;;;;;;0.10;0.10;;;;;;;;;;5106911;28;20327;-69
2021/03/25 13:34:23;;;;;;;0.10;0.10;;;;;;;;;;5100805;28;20271;-70
2021/03/25 13:36:49;;;;;;;0.10;0.10;;;;;;;;;;5103032;28;20217;-70
2021/03/25 13:39:15;;;;;;;0.30;0.30;;;;;;;;;;5103160;28;20229;-71
2021/03/25 13:41:40;;;;;;;0.10;0.10;;;;;;;;;;5100085;28;20201;-69
2021/03/25 13:44:06;;;;;;;0.10;0.10;;;;;;;;;;5106940;28;20195;-69
2021/03/25 13:46:32;;;;;;;0.10;0.10;;;;;;;;;;5095873;28;20340;-71
2021/03/25 13:48:58;;;;;;;0.10;0.10;;;;;;;;;;5104738;28;20194;-72
2021/03/25 13:51:25;;;;;;;0.10;0.10;;;;;;;;;;5104228;28;20501;-69
2021/03/25 13:53:52;;;;;;;0.10;0.10;;;;;;;;;;5105384;28;20265;-69
2021/03/25 13:56:18;;;;;;;0.10;0.10;;;;;;;;;;5100356;28;20208;-69
2021/03/25 13:58:44;;;;;;;0.10;0.10;;;;;;;;;;5106138;28;20225;-70
2021/03/25 14:01:10;;;;;;;0.10;0.10;;;;;;;;;;5095822;28;20276;-69
2021/03/25 14:03:36;;;;;;;0.10;0.10;;;;;;;;;;5099804;28;20203;-71
2021/03/25 14:06:02;;;;;;;0.10;0.10;;;;;;;;;;5106430;28;20262;-69
2021/03/25 14:08:29;;;;;;;0.10;0.10;;;;;;;;;;5093984;28;20209;-69
2021/03/25 14:10:55;;;;;;;0.10;0.10;;;;;;;;;;5099588;28;20205;-69
2021/03/25 14:13:21;;;;;;;0.10;0.10;;;;;;;;;;5106051;28;20209;-70
2021/03/25 14:15:48;;;;;;;0.10;0.10;;;;;;;;;;5106023;28;20207;-70
2021/03/25 14:18:15;;;;;;;0.03;0.03;;;;;;;;;;5098690;28;20219;-70
2021/03/25 14:20:42;;;;;;;0.10;0.10;;;;;;;;;;5103293;28;20390;-70
2021/03/25 14:23:08;;;;;;;0.10;0.10;;;;;;;;;;5104522;28;20245;-69
2021/03/25 14:25:36;;;;;;;0.10;0.10;;;;;;;;;;5105847;28;20204;-69
2021/03/25 14:28:03;;;;;;;0.27;0.27;;;;;;;;;;5095176;28;20493;-71
2021/03/25 14:30:30;;;;;;;0.10;0.10;;;;;;;;;;5104428;28;20241;-71
2021/03/25 14:32:57;;;;;;;0.10;0.10;;;;;;;;;;5100352;28;20391;-70
2021/03/25 14:35:24;;;;;;;0.10;0.10;;;;;;;;;;5099810;28;20235;-71
2021/03/25 14:37:51;;;;;;;0.10;0.10;;;;;;;;;;5096425;28;20282;-70
2021/03/25 14:40:17;;;;;;;0.10;0.10;;;;;;;;;;5102758;28;20262;-70
2021/03/25 14:42:44;;;;;;;0.10;0.10;;;;;;;;;;5094767;28;20239;-70
2021/03/25 14:45:11;;;;;;;0.10;0.10;;;;;;;;;;5092200;28;20229;-70
2021/03/25 14:47:37;;;;;;;0.40;0.40;;;;;;;;;;5105619;28;20268;-71
2021/03/25 14:50:03;;;;;;;0.10;0.10;;;;;;;;;;5105353;28;21156;-70
2021/03/25 14:52:29;;;;;;;0.07;0.07;;;;;;;;;;5096660;28;20205;-70
2021/03/25 14:54:55;;;;;;;0.10;0.10;;;;;;;;;;5103430;28;20551;-70